createdAt,value
2018-11-07T00:02:00.601Z,79.00
2018-11-07T00:04:31.526Z,79.20
2018-11-07T00:07:02.509Z,79.30
2018-11-07T00:09:34.613Z,79.40
2018-11-07T00:12:05.228Z,79.30
2018-11-07T00:14:37.604Z,79.40
2018-11-07T00:17:08.989Z,79.30
2018-11-07T00:19:41.062Z,79.60
2018-11-07T00:22:12.174Z,79.70
2018-11-07T00:24:44.930Z,79.70
2018-11-07T00:27:16.398Z,79.90
2018-11-07T00:29:48.107Z,80.20
2018-11-07T00:32:20.125Z,80.10
2018-11-07T00:34:51.066Z,79.80
2018-11-07T00:37:22.480Z,79.90
2018-11-07T00:39:53.750Z,79.90
2018-11-07T00:42:24.563Z,80.10
2018-11-07T00:44:56.689Z,80.30
2018-11-07T00:47:28.308Z,80.40
2018-11-07T00:50:00.178Z,80.50
2018-11-07T00:52:31.470Z,80.70
2018-11-07T00:55:03.442Z,80.80
2018-11-07T00:57:33.626Z,80.70
2018-11-07T01:00:04.412Z,80.60
2018-11-07T01:02:35.955Z,80.50
2018-11-07T01:05:08.929Z,80.40
2018-11-07T01:07:40.001Z,79.80
2018-11-07T01:10:12.510Z,79.60
2018-11-07T01:12:43.367Z,79.20
2018-11-07T01:15:14.835Z,79.00
2018-11-07T01:17:45.711Z,78.90
2018-11-07T01:20:16.989Z,78.90
2018-11-07T01:22:50.051Z,78.90
2018-11-07T01:25:21.052Z,78.70
2018-11-07T01:27:51.835Z,79.00
2018-11-07T01:30:23.699Z,79.20
2018-11-07T01:32:55.281Z,79.30
2018-11-07T01:35:26.570Z,79.30
2018-11-07T01:37:57.209Z,79.60
2018-11-07T01:40:28.116Z,79.70
2018-11-07T01:42:58.686Z,79.90
2018-11-07T01:45:30.575Z,79.90
2018-11-07T01:48:02.286Z,80.20
2018-11-07T01:50:33.920Z,80.20
2018-11-07T01:53:04.835Z,80.20
2018-11-07T01:55:36.375Z,80.20
2018-11-07T01:58:07.336Z,80.40
2018-11-07T02:00:38.005Z,80.40
2018-11-07T02:03:07.960Z,80.50
2018-11-07T02:05:39.651Z,80.50
2018-11-07T02:08:10.588Z,80.50
2018-11-07T02:10:41.604Z,80.60
2018-11-07T02:13:12.293Z,80.70
2018-11-07T02:15:43.307Z,80.90
2018-11-07T02:18:14.383Z,81.10
2018-11-07T02:20:45.060Z,81.20
2018-11-07T02:23:16.117Z,81.20
2018-11-07T02:25:47.105Z,81.30
2018-11-07T02:28:18.240Z,81.30
2018-11-07T02:30:49.079Z,81.50
2018-11-07T02:33:19.875Z,81.80
2018-11-07T02:35:51.151Z,81.90
2018-11-07T02:38:22.409Z,82.00
2018-11-07T02:40:54.317Z,82.20
2018-11-07T02:43:25.446Z,82.30
2018-11-07T02:45:56.948Z,82.20
2018-11-07T02:48:27.733Z,82.30
2018-11-07T02:50:58.635Z,82.30
2018-11-07T02:53:29.311Z,82.20
2018-11-07T02:56:00.955Z,82.20
2018-11-07T02:58:31.892Z,82.10
2018-11-07T03:01:02.455Z,81.90
2018-11-07T03:03:33.658Z,82.10
2018-11-07T03:06:04.695Z,82.10
2018-11-07T03:08:35.376Z,82.10
2018-11-07T03:11:07.490Z,82.00
2018-11-07T03:13:38.124Z,82.00
2018-11-07T03:16:09.508Z,81.60
2018-11-07T03:18:40.267Z,81.70
2018-11-07T03:21:10.382Z,81.70
2018-11-07T03:23:40.756Z,81.70
2018-11-07T03:26:11.634Z,81.70
2018-11-07T03:28:42.474Z,81.50
2018-11-07T03:31:13.649Z,81.40
2018-11-07T03:33:44.976Z,81.30
2018-11-07T03:36:15.410Z,81.30
2018-11-07T03:38:47.066Z,81.50
2018-11-07T03:41:17.799Z,81.40
2018-11-07T03:43:48.069Z,81.30
2018-11-07T03:46:18.263Z,81.20
2018-11-07T03:48:50.207Z,81.20
2018-11-07T03:51:20.423Z,81.30
2018-11-07T03:53:50.127Z,81.40
2018-11-07T03:56:20.958Z,81.40
2018-11-07T03:58:53.097Z,81.30
2018-11-07T04:01:23.272Z,81.30
2018-11-07T04:03:53.873Z,81.30
2018-11-07T04:06:23.885Z,81.30
2018-11-07T04:08:53.910Z,81.20
2018-11-07T04:11:24.473Z,81.10
2018-11-07T04:13:54.476Z,80.90
2018-11-07T04:16:25.036Z,80.90
2018-11-07T04:18:56.397Z,80.80
2018-11-07T04:21:28.311Z,80.70
2018-11-07T04:24:02.148Z,80.70
2018-11-07T04:26:33.952Z,80.80
2018-11-07T04:29:04.810Z,80.80
2018-11-07T04:31:34.359Z,80.90
2018-11-07T04:34:05.994Z,81.00
2018-11-07T04:36:37.153Z,80.90
2018-11-07T04:39:11.020Z,80.90
2018-11-07T04:41:40.820Z,80.80
2018-11-07T04:44:12.119Z,80.60
2018-11-07T04:46:42.224Z,80.50
2018-11-07T04:49:13.424Z,80.50
2018-11-07T04:51:43.901Z,80.70
2018-11-07T04:54:14.613Z,80.70
2018-11-07T04:56:44.935Z,80.80
2018-11-07T04:59:16.671Z,80.70
2018-11-07T05:01:46.766Z,80.80
2018-11-07T05:04:18.006Z,80.80
2018-11-07T05:06:48.335Z,81.00
2018-11-07T05:09:19.061Z,80.90
2018-11-07T05:11:48.813Z,80.90
2018-11-07T05:14:18.503Z,80.90
2018-11-07T05:16:50.268Z,80.90
2018-11-07T05:19:21.424Z,81.00
2018-11-07T05:21:51.824Z,81.00
2018-11-07T05:24:23.119Z,81.10
2018-11-07T05:26:54.211Z,81.20
2018-11-07T05:29:25.649Z,81.20
2018-11-07T05:31:55.474Z,81.20
2018-11-07T05:34:25.919Z,81.20
2018-11-07T05:36:56.606Z,81.30
2018-11-07T05:39:28.512Z,81.40
2018-11-07T05:41:58.497Z,81.70
2018-11-07T05:44:29.777Z,81.60
2018-11-07T05:47:00.127Z,81.50
2018-11-07T05:49:32.353Z,81.50
2018-11-07T05:52:02.783Z,81.70
2018-11-07T05:54:32.978Z,81.70
2018-11-07T05:57:03.072Z,81.90
2018-11-07T05:59:33.979Z,81.80
2018-11-07T06:02:04.886Z,81.70
2018-11-07T06:04:35.163Z,82.00
2018-11-07T06:07:05.879Z,81.90
2018-11-07T06:09:36.665Z,81.90
2018-11-07T06:12:06.543Z,81.90
2018-11-07T06:14:37.154Z,81.90
2018-11-07T06:17:07.857Z,82.10
2018-11-07T06:19:38.996Z,82.20
2018-11-07T06:22:09.854Z,82.10
2018-11-07T06:24:41.177Z,82.20
2018-11-07T06:27:12.138Z,82.20
2018-11-07T06:29:44.261Z,82.20
2018-11-07T06:32:15.052Z,82.20
2018-11-07T06:34:45.963Z,82.40
2018-11-07T06:37:16.935Z,82.40
2018-11-07T06:39:49.038Z,82.40
2018-11-07T06:42:19.867Z,82.50
2018-11-07T06:44:51.126Z,82.40
2018-11-07T06:47:22.410Z,82.50
2018-11-07T06:49:53.313Z,82.50
2018-11-07T06:52:23.766Z,82.50
2018-11-07T06:54:55.399Z,82.60
2018-11-07T06:57:26.041Z,82.60
2018-11-07T06:59:57.680Z,82.80
2018-11-07T07:02:28.728Z,82.80
2018-11-07T07:04:59.276Z,82.80
2018-11-07T07:07:29.760Z,83.10
2018-11-07T07:10:01.241Z,83.20
2018-11-07T07:12:32.548Z,83.40
2018-11-07T07:15:03.036Z,83.40
2018-11-07T07:17:34.108Z,83.40
2018-11-07T07:20:06.872Z,83.50
2018-11-07T07:22:37.686Z,83.30
2018-11-07T07:25:11.330Z,83.30
2018-11-07T07:27:43.013Z,83.30
2018-11-07T07:30:16.998Z,83.40
2018-11-07T07:32:48.376Z,83.30
2018-11-07T07:35:19.803Z,83.30
2018-11-07T07:37:50.997Z,83.30
2018-11-07T07:40:22.444Z,83.10
2018-11-07T07:42:53.378Z,83.10
2018-11-07T07:45:25.268Z,83.10
2018-11-07T07:47:56.564Z,83.20
2018-11-07T07:50:27.819Z,83.00
2018-11-07T07:52:59.270Z,82.90
2018-11-07T07:55:30.029Z,82.80
2018-11-07T07:57:59.486Z,82.70
2018-11-07T08:00:30.593Z,82.70
2018-11-07T08:03:00.916Z,82.70
2018-11-07T08:05:32.575Z,82.90
2018-11-07T08:08:02.840Z,83.00
2018-11-07T08:10:34.212Z,83.20
2018-11-07T08:13:05.970Z,83.40
2018-11-07T08:15:36.762Z,83.40
2018-11-07T08:18:08.022Z,83.30
2018-11-07T08:20:39.436Z,83.20
2018-11-07T08:23:10.116Z,83.00
2018-11-07T08:25:41.560Z,82.80
2018-11-07T08:28:12.849Z,83.10
2018-11-07T08:30:44.839Z,83.30
2018-11-07T08:33:15.429Z,83.30
2018-11-07T08:35:47.043Z,83.30
2018-11-07T08:38:18.261Z,83.20
2018-11-07T08:40:49.678Z,82.80
2018-11-07T08:43:20.747Z,82.60
2018-11-07T08:45:51.760Z,82.40
2018-11-07T08:48:22.684Z,82.50
2018-11-07T08:50:54.243Z,82.50
2018-11-07T08:53:25.858Z,82.60
2018-11-07T08:55:56.782Z,82.60
2018-11-07T08:58:27.600Z,82.60
2018-11-07T09:00:59.691Z,82.70
2018-11-07T09:03:30.441Z,82.40
2018-11-07T09:06:00.713Z,82.20
2018-11-07T09:08:31.829Z,81.80
2018-11-07T09:11:03.023Z,81.70
2018-11-07T09:13:34.044Z,81.70
2018-11-07T09:16:05.017Z,81.70
2018-11-07T09:18:35.970Z,81.90
2018-11-07T09:21:07.327Z,81.90
2018-11-07T09:23:38.427Z,81.90
2018-11-07T09:26:09.608Z,81.70
2018-11-07T09:28:40.800Z,81.70
2018-11-07T09:31:12.495Z,81.60
2018-11-07T09:33:43.056Z,81.60
2018-11-07T09:36:13.880Z,81.50
2018-11-07T09:38:44.331Z,81.20
2018-11-07T09:41:15.973Z,81.20
2018-11-07T09:43:46.203Z,81.00
2018-11-07T09:46:17.536Z,80.80
2018-11-07T09:48:48.830Z,80.50
2018-11-07T09:51:19.519Z,80.40
2018-11-07T09:53:51.084Z,80.20
2018-11-07T09:56:22.436Z,80.30
2018-11-07T09:58:52.672Z,80.50
2018-11-07T10:01:24.081Z,80.30
2018-11-07T10:03:55.961Z,80.50
2018-11-07T10:06:27.151Z,80.30
2018-11-07T10:08:58.418Z,80.10
2018-11-07T10:11:29.592Z,79.80
2018-11-07T10:14:01.330Z,79.60
2018-11-07T10:16:33.516Z,79.10
2018-11-07T10:19:04.774Z,78.60
2018-11-07T10:21:36.301Z,78.60
2018-11-07T10:24:07.558Z,78.60
2018-11-07T10:26:39.162Z,79.40
2018-11-07T10:29:10.418Z,79.40
2018-11-07T10:31:41.953Z,79.10
2018-11-07T10:34:12.838Z,79.00
2018-11-07T10:36:44.426Z,79.00
2018-11-07T10:39:14.988Z,78.80
2018-11-07T10:41:46.293Z,78.60
2018-11-07T10:44:16.647Z,78.20
2018-11-07T10:46:48.683Z,78.30
2018-11-07T10:49:19.357Z,78.10
2018-11-07T10:51:50.802Z,78.30
2018-11-07T10:54:21.728Z,78.50
2018-11-07T10:56:53.341Z,78.40
2018-11-07T10:59:24.071Z,78.00
2018-11-07T11:02:00.214Z,77.90
2018-11-07T11:04:30.754Z,77.90
2018-11-07T11:07:02.445Z,77.90
2018-11-07T11:09:32.610Z,77.80
2018-11-07T11:12:03.241Z,77.70
2018-11-07T11:14:35.216Z,77.50
2018-11-07T11:17:07.391Z,77.00
2018-11-07T11:19:37.731Z,76.50
2018-11-07T11:22:10.263Z,76.40
2018-11-07T11:24:41.687Z,76.40
2018-11-07T11:27:13.779Z,76.70
2018-11-07T11:29:44.327Z,76.20
2018-11-07T11:32:15.459Z,76.20
2018-11-07T11:34:46.491Z,76.20
2018-11-07T11:37:16.941Z,75.60
2018-11-07T11:39:47.340Z,74.80
2018-11-07T11:42:18.792Z,74.90
2018-11-07T11:44:49.824Z,75.00
2018-11-07T11:47:21.532Z,74.90
2018-11-07T11:49:51.964Z,74.40
2018-11-07T11:52:23.099Z,73.80
2018-11-07T11:54:53.369Z,73.70
2018-11-07T11:57:24.723Z,74.00
2018-11-07T11:59:55.962Z,73.30
2018-11-07T12:02:27.300Z,73.60
2018-11-07T12:04:57.827Z,73.50
2018-11-07T12:07:29.499Z,73.20
2018-11-07T12:10:00.267Z,72.90
2018-11-07T12:12:31.771Z,72.50
2018-11-07T12:15:03.213Z,72.00
2018-11-07T12:17:35.113Z,72.00
2018-11-07T12:20:06.502Z,72.00
2018-11-07T12:22:38.621Z,71.70
2018-11-07T12:25:11.128Z,71.60
2018-11-07T12:27:42.986Z,71.40
2018-11-07T12:30:17.106Z,71.00
2018-11-07T12:32:49.007Z,70.90
2018-11-07T12:35:21.168Z,70.80
2018-11-07T12:37:52.831Z,70.60
2018-11-07T12:40:24.001Z,69.90
2018-11-07T12:42:54.714Z,69.60
2018-11-07T12:45:25.916Z,69.20
2018-11-07T12:47:58.493Z,69.00
2018-11-07T12:50:30.491Z,68.50
2018-11-07T12:53:01.394Z,68.20
2018-11-07T12:55:32.185Z,67.90
2018-11-07T12:58:03.382Z,67.50
2018-11-07T13:00:34.364Z,67.30
2018-11-07T13:03:06.201Z,67.00
2018-11-07T13:05:37.060Z,66.70
2018-11-07T13:08:08.674Z,66.00
2018-11-07T13:10:39.162Z,66.00
2018-11-07T13:13:10.538Z,65.80
2018-11-07T13:15:41.614Z,65.90
2018-11-07T13:18:12.762Z,65.80
2018-11-07T13:20:43.923Z,65.90
2018-11-07T13:23:15.094Z,66.00
2018-11-07T13:25:46.317Z,65.90
2018-11-07T13:28:17.676Z,65.80
2018-11-07T13:30:49.184Z,65.30
2018-11-07T13:33:19.832Z,65.20
2018-11-07T13:35:50.309Z,65.20
2018-11-07T13:38:22.188Z,65.10
2018-11-07T13:40:52.845Z,65.10
2018-11-07T13:43:24.798Z,64.50
2018-11-07T13:45:56.131Z,64.10
2018-11-07T13:48:27.445Z,64.10
2018-11-07T13:50:57.733Z,64.30
2018-11-07T13:53:28.523Z,64.10
2018-11-07T13:55:58.947Z,63.80
2018-11-07T13:58:29.962Z,62.50
2018-11-07T14:00:59.610Z,62.20
2018-11-07T14:03:30.664Z,62.10
2018-11-07T14:06:01.288Z,62.30
2018-11-07T14:08:33.041Z,62.50
2018-11-07T14:11:03.840Z,62.50
2018-11-07T14:13:35.166Z,62.60
2018-11-07T14:16:06.533Z,62.60
2018-11-07T14:18:37.228Z,62.70
2018-11-07T14:21:07.622Z,62.90
2018-11-07T14:23:39.125Z,62.90
2018-11-07T14:26:09.918Z,63.00
2018-11-07T14:28:41.456Z,63.00
2018-11-07T14:31:12.953Z,63.20
2018-11-07T14:33:44.305Z,63.40
2018-11-07T14:36:14.651Z,63.30
2018-11-07T14:38:47.011Z,63.30
2018-11-07T14:41:17.568Z,63.50
2018-11-07T14:43:49.483Z,63.70
2018-11-07T14:46:20.044Z,64.00
2018-11-07T14:48:51.298Z,64.20
2018-11-07T14:51:22.027Z,64.30
2018-11-07T14:53:52.619Z,64.40
2018-11-07T14:56:23.186Z,64.50
2018-11-07T14:58:53.983Z,64.60
2018-11-07T15:01:24.732Z,64.70
2018-11-07T15:03:56.342Z,64.70
2018-11-07T15:06:27.643Z,65.10
2018-11-07T15:08:58.908Z,65.10
2018-11-07T15:11:29.648Z,65.10
2018-11-07T15:14:00.357Z,65.50
2018-11-07T15:16:31.223Z,65.70
2018-11-07T15:19:03.154Z,66.00
2018-11-07T15:21:34.052Z,65.90
2018-11-07T15:24:05.431Z,65.90
2018-11-07T15:26:36.132Z,66.20
2018-11-07T15:29:07.453Z,66.20
2018-11-07T15:31:38.504Z,66.60
2018-11-07T15:34:09.810Z,66.40
2018-11-07T15:36:40.305Z,66.90
2018-11-07T15:39:12.924Z,67.00
2018-11-07T15:41:44.504Z,67.10
2018-11-07T15:44:17.176Z,67.30
2018-11-07T15:46:47.724Z,67.30
2018-11-07T15:49:18.841Z,67.50
2018-11-07T15:51:53.828Z,67.60
2018-11-07T15:54:27.075Z,67.50
2018-11-07T15:56:57.800Z,67.80
2018-11-07T15:59:28.925Z,67.90
2018-11-07T16:01:59.983Z,67.80
2018-11-07T16:04:31.297Z,67.60
2018-11-07T16:07:01.946Z,67.40
2018-11-07T16:09:33.504Z,67.30
2018-11-07T16:12:05.127Z,67.10
2018-11-07T16:14:37.097Z,67.00
2018-11-07T16:17:08.087Z,67.00
2018-11-07T16:19:38.812Z,66.60
2018-11-07T16:22:09.401Z,66.50
2018-11-07T16:24:41.068Z,66.40
2018-11-07T16:27:12.231Z,66.40
2018-11-07T16:29:44.148Z,66.40
2018-11-07T16:32:15.412Z,66.20
2018-11-07T16:34:46.713Z,66.20
2018-11-07T16:37:17.987Z,65.70
2018-11-07T16:39:49.411Z,65.30
2018-11-07T16:42:19.782Z,65.50
2018-11-07T16:44:51.227Z,65.70
2018-11-07T16:47:22.747Z,65.60
2018-11-07T16:49:53.588Z,65.50
2018-11-07T16:52:24.295Z,65.30
2018-11-07T16:54:54.839Z,65.30
2018-11-07T16:57:25.754Z,65.40
2018-11-07T16:59:57.377Z,65.90
2018-11-07T17:02:28.407Z,65.90
2018-11-07T17:05:00.824Z,66.10
2018-11-07T17:07:31.313Z,66.30
2018-11-07T17:10:02.464Z,66.50
2018-11-07T17:12:33.045Z,66.70
2018-11-07T17:15:05.584Z,66.70
2018-11-07T17:17:36.700Z,66.90
2018-11-07T17:20:10.187Z,67.00
2018-11-07T17:22:41.938Z,67.20
2018-11-07T17:25:17.840Z,67.30
2018-11-07T17:27:49.416Z,67.50
2018-11-07T17:30:21.788Z,67.80
2018-11-07T17:32:51.697Z,68.50
2018-11-07T17:35:22.844Z,69.10
2018-11-07T17:37:53.396Z,69.70
2018-11-07T17:40:26.140Z,69.90
2018-11-07T17:42:56.529Z,70.10
2018-11-07T17:45:29.792Z,70.90
2018-11-07T17:48:00.392Z,71.60
2018-11-07T17:50:31.478Z,72.60
2018-11-07T17:53:01.707Z,73.70
2018-11-07T17:55:32.471Z,74.10
2018-11-07T17:58:02.959Z,75.00
2018-11-07T18:00:36.831Z,75.40
2018-11-07T18:03:07.768Z,75.60
2018-11-07T18:05:38.329Z,75.60
2018-11-07T18:08:08.331Z,76.00
2018-11-07T18:10:39.279Z,76.00
2018-11-07T18:13:10.178Z,76.00
2018-11-07T18:15:41.435Z,76.60
2018-11-07T18:18:11.541Z,77.10
2018-11-07T18:20:42.290Z,77.30
2018-11-07T18:23:12.301Z,77.50
2018-11-07T18:25:43.992Z,77.70
2018-11-07T18:28:13.731Z,77.70
2018-11-07T18:30:45.179Z,77.70
2018-11-07T18:33:14.869Z,77.80
2018-11-07T18:35:45.806Z,77.80
2018-11-07T18:38:15.725Z,77.80
2018-11-07T18:40:45.829Z,77.90
2018-11-07T18:43:15.759Z,78.00
2018-11-07T18:45:45.767Z,78.30
2018-11-07T18:48:15.336Z,78.50
2018-11-07T18:50:45.769Z,79.00
2018-11-07T18:53:15.938Z,79.20
2018-11-07T18:55:45.621Z,79.20
2018-11-07T18:58:15.703Z,79.60
2018-11-07T19:00:46.160Z,79.70
2018-11-07T19:03:16.056Z,79.90
2018-11-07T19:05:46.338Z,80.00
2018-11-07T19:08:16.249Z,80.10
2018-11-07T19:10:46.289Z,80.20
2018-11-07T19:13:16.551Z,80.20
2018-11-07T19:15:46.079Z,80.10
2018-11-07T19:18:16.183Z,80.20
2018-11-07T19:20:45.835Z,80.30
2018-11-07T19:23:15.728Z,80.50
2018-11-07T19:25:45.934Z,80.60
2018-11-07T19:28:16.453Z,80.80
2018-11-07T19:30:46.702Z,80.80
2018-11-07T19:33:17.495Z,81.00
2018-11-07T19:35:47.749Z,81.10
2018-11-07T19:38:18.673Z,81.30
2018-11-07T19:40:50.728Z,81.20
2018-11-07T19:43:20.592Z,81.40
2018-11-07T19:45:51.325Z,81.40
2018-11-07T19:48:22.647Z,81.30
2018-11-07T19:50:53.597Z,81.40
2018-11-07T19:53:23.525Z,81.60
2018-11-07T19:55:56.249Z,81.50
2018-11-07T19:58:28.645Z,81.60
2018-11-07T20:00:59.758Z,81.70
2018-11-07T20:03:30.104Z,81.80
2018-11-07T20:06:00.667Z,81.80
2018-11-07T20:08:31.507Z,81.90
2018-11-07T20:11:02.329Z,82.00
2018-11-07T20:13:32.692Z,82.10
2018-11-07T20:16:03.419Z,82.20
2018-11-07T20:18:33.295Z,82.30
2018-11-07T20:21:05.438Z,82.40
2018-11-07T20:23:35.932Z,82.40
2018-11-07T20:26:07.496Z,82.60
2018-11-07T20:28:38.675Z,82.60
2018-11-07T20:31:09.298Z,82.60
2018-11-07T20:33:40.740Z,82.60
2018-11-07T20:36:11.947Z,82.70
2018-11-07T20:38:42.164Z,82.80
2018-11-07T20:41:13.486Z,82.90
2018-11-07T20:43:43.977Z,82.90
2018-11-07T20:46:16.348Z,82.90
2018-11-07T20:48:47.300Z,82.80
2018-11-07T20:51:17.917Z,82.70
2018-11-07T20:53:48.812Z,82.70
2018-11-07T20:56:19.600Z,82.80
2018-11-07T20:58:50.211Z,82.90
2018-11-07T21:01:20.852Z,82.70
2018-11-07T21:03:50.684Z,82.80
2018-11-07T21:06:21.852Z,82.80
2018-11-07T21:08:54.297Z,82.80
2018-11-07T21:11:25.825Z,82.80
2018-11-07T21:13:56.073Z,82.90
2018-11-07T21:16:27.266Z,82.90
2018-11-07T21:18:56.933Z,83.00
2018-11-07T21:21:28.857Z,83.10
2018-11-07T21:23:59.433Z,83.10
2018-11-07T21:26:32.043Z,83.10
2018-11-07T21:29:04.142Z,83.10
2018-11-07T21:31:35.287Z,83.10
2018-11-07T21:34:05.688Z,83.00
2018-11-07T21:36:35.784Z,83.10
2018-11-07T21:39:09.146Z,83.10
2018-11-07T21:41:39.778Z,83.20
2018-11-07T21:44:10.108Z,83.00
2018-11-07T21:46:41.915Z,83.00
2018-11-07T21:49:13.132Z,82.90
2018-11-07T21:51:44.997Z,82.90
2018-11-07T21:54:17.127Z,82.90
2018-11-07T21:56:48.879Z,82.80
2018-11-07T21:59:19.606Z,82.80
2018-11-07T22:01:51.913Z,82.80
2018-11-07T22:04:24.266Z,82.70
2018-11-07T22:06:55.938Z,82.70
2018-11-07T22:09:27.273Z,82.80
2018-11-07T22:11:58.230Z,82.80
2018-11-07T22:14:31.109Z,82.80
2018-11-07T22:17:02.555Z,82.80
2018-11-07T22:19:35.060Z,82.90
2018-11-07T22:22:07.083Z,82.90
2018-11-07T22:24:39.398Z,82.90
2018-11-07T22:27:10.442Z,82.90
2018-11-07T22:29:41.905Z,82.80
2018-11-07T22:32:15.788Z,82.80
2018-11-07T22:34:47.771Z,82.80
2018-11-07T22:37:20.637Z,82.90
2018-11-07T22:39:52.065Z,82.90
2018-11-07T22:42:24.488Z,82.90
2018-11-07T22:44:56.580Z,82.90
2018-11-07T22:47:28.255Z,82.90
2018-11-07T22:49:59.583Z,83.00
2018-11-07T22:52:30.843Z,83.00
2018-11-07T22:55:01.460Z,82.90
2018-11-07T22:57:33.467Z,82.80
2018-11-07T23:00:07.463Z,82.80
2018-11-07T23:02:38.460Z,82.70
2018-11-07T23:05:09.355Z,82.80
2018-11-07T23:07:41.018Z,82.80
2018-11-07T23:10:11.349Z,82.90
2018-11-07T23:12:43.442Z,82.90
2018-11-07T23:15:19.310Z,83.00
2018-11-07T23:17:52.204Z,83.10
2018-11-07T23:20:22.631Z,83.10
2018-11-07T23:22:55.603Z,83.10
2018-11-07T23:25:28.798Z,83.10
2018-11-07T23:28:03.128Z,83.00
2018-11-07T23:30:35.540Z,82.90
2018-11-07T23:33:08.092Z,82.90
2018-11-07T23:35:38.744Z,82.80
2018-11-07T23:38:08.991Z,82.70
2018-11-07T23:40:41.374Z,82.70
2018-11-07T23:43:15.114Z,82.70
2018-11-07T23:45:47.262Z,82.80
2018-11-07T23:48:19.219Z,82.80
2018-11-07T23:50:49.850Z,82.70
2018-11-07T23:53:23.239Z,82.60
2018-11-07T23:55:54.811Z,82.60
2018-11-07T23:58:25.897Z,82.70
